sensor_id;sensor_type;location;lat;lon;timestamp;pressure;altitude;pressure_sealevel;temperature;humidity
81931;BME280;71395;43.488;1.472;2024-02-26T00:00:33;97985.25;;;10.17;81.30
81931;BME280;71395;43.488;1.472;2024-02-26T00:03:00;97991.09;;;10.19;81.53
81931;BME280;71395;43.488;1.472;2024-02-26T00:05:26;97966.31;;;10.13;80.75
81931;BME280;71395;43.488;1.472;2024-02-26T00:07:52;97974.56;;;10.17;81.57
81931;BME280;71395;43.488;1.472;2024-02-26T00:10:18;97965.97;;;10.06;80.00
81931;BME280;71395;43.488;1.472;2024-02-26T00:12:43;97972.59;;;10.08;79.98
81931;BME280;71395;43.488;1.472;2024-02-26T00:15:10;97986.16;;;10.12;80.74
81931;BME280;71395;43.488;1.472;2024-02-26T00:17:36;97973.81;;;10.02;80.19
81931;BME280;71395;43.488;1.472;2024-02-26T00:20:02;97967.19;;;10.00;80.83
81931;BME280;71395;43.488;1.472;2024-02-26T00:22:30;97977.78;;;10.05;81.08
81931;BME280;71395;43.488;1.472;2024-02-26T00:24:56;97952.31;;;9.94;80.22
81931;BME280;71395;43.488;1.472;2024-02-26T00:27:22;97937.88;;;9.95;80.38
81931;BME280;71395;43.488;1.472;2024-02-26T00:29:48;97939.38;;;9.87;80.00
81931;BME280;71395;43.488;1.472;2024-02-26T00:32:14;97948.69;;;9.90;79.57
81931;BME280;71395;43.488;1.472;2024-02-26T00:34:39;97927.03;;;9.77;79.50
81931;BME280;71395;43.488;1.472;2024-02-26T00:37:05;97930.00;;;9.76;80.59
81931;BME280;71395;43.488;1.472;2024-02-26T00:39:31;97926.53;;;9.75;80.03
81931;BME280;71395;43.488;1.472;2024-02-26T00:41:56;97922.09;;;9.71;80.47
81931;BME280;71395;43.488;1.472;2024-02-26T00:44:22;97917.97;;;9.65;80.32
81931;BME280;71395;43.488;1.472;2024-02-26T00:46:48;97917.25;;;9.59;81.14
81931;BME280;71395;43.488;1.472;2024-02-26T00:49:14;97923.13;;;9.61;80.06
81931;BME280;71395;43.488;1.472;2024-02-26T00:51:39;97874.56;;;9.31;81.02
81931;BME280;71395;43.488;1.472;2024-02-26T00:54:05;97916.91;;;9.52;81.15
81931;BME280;71395;43.488;1.472;2024-02-26T00:56:31;97895.63;;;9.47;80.64
81931;BME280;71395;43.488;1.472;2024-02-26T00:58:56;97885.59;;;9.52;80.35
81931;BME280;71395;43.488;1.472;2024-02-26T01:01:22;97897.38;;;9.51;80.54
81931;BME280;71395;43.488;1.472;2024-02-26T01:03:48;97898.75;;;9.49;81.80
81931;BME280;71395;43.488;1.472;2024-02-26T01:06:13;97896.59;;;9.51;81.51
81931;BME280;71395;43.488;1.472;2024-02-26T01:08:39;97903.53;;;9.52;80.09
81931;BME280;71395;43.488;1.472;2024-02-26T01:11:05;97920.31;;;9.66;80.36
81931;BME280;71395;43.488;1.472;2024-02-26T01:13:30;97906.63;;;9.68;81.82
81931;BME280;71395;43.488;1.472;2024-02-26T01:15:56;97904.06;;;9.63;81.30
81931;BME280;71395;43.488;1.472;2024-02-26T01:18:22;97912.97;;;9.72;80.79
81931;BME280;71395;43.488;1.472;2024-02-26T01:20:48;97908.22;;;9.69;81.07
81931;BME280;71395;43.488;1.472;2024-02-26T01:23:14;97899.91;;;9.70;81.86
81931;BME280;71395;43.488;1.472;2024-02-26T01:25:40;97898.28;;;9.69;80.53
81931;BME280;71395;43.488;1.472;2024-02-26T01:28:05;97898.50;;;9.73;80.77
81931;BME280;71395;43.488;1.472;2024-02-26T01:30:31;97892.78;;;9.66;79.80
81931;BME280;71395;43.488;1.472;2024-02-26T01:32:57;97875.56;;;9.58;79.70
81931;BME280;71395;43.488;1.472;2024-02-26T01:35:23;97894.78;;;9.60;80.79
81931;BME280;71395;43.488;1.472;2024-02-26T01:37:49;97886.88;;;9.55;80.42
81931;BME280;71395;43.488;1.472;2024-02-26T01:40:14;97882.72;;;9.49;81.19
81931;BME280;71395;43.488;1.472;2024-02-26T01:42:45;97887.59;;;9.47;79.94
81931;BME280;71395;43.488;1.472;2024-02-26T01:45:19;97883.94;;;9.43;79.77
81931;BME280;71395;43.488;1.472;2024-02-26T01:47:50;97885.94;;;9.37;79.77
81931;BME280;71395;43.488;1.472;2024-02-26T01:50:18;97882.59;;;9.31;79.60
81931;BME280;71395;43.488;1.472;2024-02-26T01:52:45;97880.13;;;9.21;79.54
81931;BME280;71395;43.488;1.472;2024-02-26T01:55:13;97879.25;;;9.12;79.74
81931;BME280;71395;43.488;1.472;2024-02-26T01:57:41;97872.13;;;9.07;79.96
81931;BME280;71395;43.488;1.472;2024-02-26T02:00:08;97885.81;;;9.06;80.42
81931;BME280;71395;43.488;1.472;2024-02-26T02:02:34;97858.88;;;8.89;80.47
81931;BME280;71395;43.488;1.472;2024-02-26T02:05:00;97879.56;;;8.97;79.93
81931;BME280;71395;43.488;1.472;2024-02-26T02:07:26;97878.09;;;8.91;80.08
81931;BME280;71395;43.488;1.472;2024-02-26T02:09:53;97875.53;;;8.86;78.83
81931;BME280;71395;43.488;1.472;2024-02-26T02:12:19;97847.44;;;8.61;80.31
81931;BME280;71395;43.488;1.472;2024-02-26T02:14:45;97865.16;;;8.70;80.36
81931;BME280;71395;43.488;1.472;2024-02-26T02:17:11;97870.00;;;8.68;79.85
81931;BME280;71395;43.488;1.472;2024-02-26T02:19:37;97866.63;;;8.63;79.58
81931;BME280;71395;43.488;1.472;2024-02-26T02:22:02;97859.13;;;8.51;78.63
81931;BME280;71395;43.488;1.472;2024-02-26T02:24:28;97836.50;;;8.29;79.74
81931;BME280;71395;43.488;1.472;2024-02-26T02:26:54;97856.66;;;8.41;79.40
81931;BME280;71395;43.488;1.472;2024-02-26T02:29:20;97858.22;;;8.42;79.48
81931;BME280;71395;43.488;1.472;2024-02-26T02:31:46;97854.31;;;8.34;78.91
81931;BME280;71395;43.488;1.472;2024-02-26T02:34:13;97860.53;;;8.29;79.99
81931;BME280;71395;43.488;1.472;2024-02-26T02:36:51;97855.66;;;8.37;78.67
81931;BME280;71395;43.488;1.472;2024-02-26T02:39:17;97837.72;;;8.23;80.06
81931;BME280;71395;43.488;1.472;2024-02-26T02:41:43;97809.22;;;8.05;78.73
81931;BME280;71395;43.488;1.472;2024-02-26T02:44:09;97846.81;;;8.22;78.88
81931;BME280;71395;43.488;1.472;2024-02-26T02:46:35;97842.66;;;8.16;79.66
81931;BME280;71395;43.488;1.472;2024-02-26T02:49:01;97832.16;;;8.06;79.83
81931;BME280;71395;43.488;1.472;2024-02-26T02:51:27;97839.56;;;8.09;79.21
81931;BME280;71395;43.488;1.472;2024-02-26T02:57:02;97840.44;;;8.04;80.06
81931;BME280;71395;43.488;1.472;2024-02-26T02:59:28;97843.41;;;8.03;79.62
81931;BME280;71395;43.488;1.472;2024-02-26T03:01:54;97831.72;;;7.99;79.55
81931;BME280;71395;43.488;1.472;2024-02-26T03:04:19;97822.63;;;8.00;80.03
81931;BME280;71395;43.488;1.472;2024-02-26T03:06:45;97830.94;;;7.98;79.15
81931;BME280;71395;43.488;1.472;2024-02-26T03:09:10;97829.75;;;7.91;79.19
81931;BME280;71395;43.488;1.472;2024-02-26T03:11:36;97836.59;;;7.97;79.40
81931;BME280;71395;43.488;1.472;2024-02-26T03:14:01;97834.91;;;8.01;79.15
81931;BME280;71395;43.488;1.472;2024-02-26T03:16:27;97815.00;;;7.80;79.37
81931;BME280;71395;43.488;1.472;2024-02-26T03:18:53;97825.78;;;7.88;79.37
81931;BME280;71395;43.488;1.472;2024-02-26T03:21:18;97840.34;;;7.96;80.04
81931;BME280;71395;43.488;1.472;2024-02-26T03:23:44;97827.19;;;7.86;79.10
81931;BME280;71395;43.488;1.472;2024-02-26T03:26:09;97832.13;;;7.92;79.20
81931;BME280;71395;43.488;1.472;2024-02-26T03:28:39;97831.72;;;7.99;79.84
81931;BME280;71395;43.488;1.472;2024-02-26T03:31:04;97839.88;;;8.08;79.71
81931;BME280;71395;43.488;1.472;2024-02-26T03:33:30;97823.94;;;8.02;80.60
81931;BME280;71395;43.488;1.472;2024-02-26T03:35:55;97833.13;;;8.10;80.49
81931;BME280;71395;43.488;1.472;2024-02-26T03:38:21;97845.91;;;8.27;80.56
81931;BME280;71395;43.488;1.472;2024-02-26T03:40:46;97847.66;;;8.37;80.37
81931;BME280;71395;43.488;1.472;2024-02-26T03:43:12;97852.38;;;8.40;80.17
81931;BME280;71395;43.488;1.472;2024-02-26T03:45:38;97834.97;;;8.42;79.73
81931;BME280;71395;43.488;1.472;2024-02-26T03:48:04;97847.84;;;8.54;79.99
81931;BME280;71395;43.488;1.472;2024-02-26T03:50:29;97837.03;;;8.59;81.36
81931;BME280;71395;43.488;1.472;2024-02-26T03:52:55;97820.44;;;8.62;80.07
81931;BME280;71395;43.488;1.472;2024-02-26T03:55:22;97824.59;;;8.68;81.22
81931;BME280;71395;43.488;1.472;2024-02-26T03:57:51;97805.00;;;8.59;81.28
81931;BME280;71395;43.488;1.472;2024-02-26T04:00:17;97828.03;;;8.83;80.51
81931;BME280;71395;43.488;1.472;2024-02-26T04:02:42;97838.03;;;8.91;81.18
81931;BME280;71395;43.488;1.472;2024-02-26T04:05:11;97836.13;;;8.91;80.53
81931;BME280;71395;43.488;1.472;2024-02-26T04:07:37;97840.38;;;8.92;79.99
81931;BME280;71395;43.488;1.472;2024-02-26T04:10:02;97833.63;;;8.95;80.29
81931;BME280;71395;43.488;1.472;2024-02-26T04:12:31;97861.34;;;8.99;79.98
81931;BME280;71395;43.488;1.472;2024-02-26T04:14:56;97815.97;;;8.85;80.68
81931;BME280;71395;43.488;1.472;2024-02-26T04:17:22;97840.38;;;9.06;80.82
81931;BME280;71395;43.488;1.472;2024-02-26T04:19:47;97841.84;;;9.12;80.34
81931;BME280;71395;43.488;1.472;2024-02-26T04:22:13;97831.72;;;9.09;80.69
81931;BME280;71395;43.488;1.472;2024-02-26T04:24:38;97823.59;;;9.14;79.44
81931;BME280;71395;43.488;1.472;2024-02-26T04:27:04;97829.44;;;9.16;80.06
81931;BME280;71395;43.488;1.472;2024-02-26T04:29:29;97837.34;;;9.21;80.30
81931;BME280;71395;43.488;1.472;2024-02-26T04:31:55;97833.28;;;9.24;79.63
81931;BME280;71395;43.488;1.472;2024-02-26T04:34:20;97835.03;;;9.28;80.79
81931;BME280;71395;43.488;1.472;2024-02-26T04:36:46;97815.78;;;9.18;79.37
81931;BME280;71395;43.488;1.472;2024-02-26T04:39:13;97824.34;;;9.28;80.06
81931;BME280;71395;43.488;1.472;2024-02-26T04:41:39;97845.16;;;9.31;79.57
81931;BME280;71395;43.488;1.472;2024-02-26T04:44:05;97840.78;;;9.36;79.69
81931;BME280;71395;43.488;1.472;2024-02-26T04:46:31;97847.59;;;9.42;79.93
81931;BME280;71395;43.488;1.472;2024-02-26T04:48:56;97815.34;;;9.24;79.11
81931;BME280;71395;43.488;1.472;2024-02-26T04:51:22;97853.41;;;9.44;79.69
81931;BME280;71395;43.488;1.472;2024-02-26T04:53:47;97851.84;;;9.43;78.78
81931;BME280;71395;43.488;1.472;2024-02-26T04:56:13;97843.34;;;9.41;79.71
81931;BME280;71395;43.488;1.472;2024-02-26T04:58:38;97849.34;;;9.46;78.63
81931;BME280;71395;43.488;1.472;2024-02-26T05:01:05;97834.22;;;9.42;78.77
81931;BME280;71395;43.488;1.472;2024-02-26T05:03:30;97857.56;;;9.50;79.17
81931;BME280;71395;43.488;1.472;2024-02-26T05:05:56;97848.13;;;9.52;79.54
81931;BME280;71395;43.488;1.472;2024-02-26T05:08:23;97844.69;;;9.52;79.06
81931;BME280;71395;43.488;1.472;2024-02-26T05:10:48;97838.09;;;9.58;79.36
81931;BME280;71395;43.488;1.472;2024-02-26T05:13:14;97857.69;;;9.67;79.93
81931;BME280;71395;43.488;1.472;2024-02-26T05:15:41;97856.91;;;9.67;78.84
81931;BME280;71395;43.488;1.472;2024-02-26T05:18:07;97859.78;;;9.70;79.22
81931;BME280;71395;43.488;1.472;2024-02-26T05:20:33;97825.84;;;9.57;78.58
81931;BME280;71395;43.488;1.472;2024-02-26T05:23:00;97857.69;;;9.67;79.24
81931;BME280;71395;43.488;1.472;2024-02-26T05:25:26;97853.44;;;9.66;78.40
81931;BME280;71395;43.488;1.472;2024-02-26T05:27:51;97864.34;;;9.70;78.41
81931;BME280;71395;43.488;1.472;2024-02-26T05:30:17;97847.22;;;9.57;78.04
81931;BME280;71395;43.488;1.472;2024-02-26T05:32:42;97838.72;;;9.55;79.43
81931;BME280;71395;43.488;1.472;2024-02-26T05:35:08;97838.41;;;9.56;78.24
81931;BME280;71395;43.488;1.472;2024-02-26T05:37:34;97824.84;;;9.53;78.88
81931;BME280;71395;43.488;1.472;2024-02-26T05:39:59;97840.19;;;9.61;79.32
81931;BME280;71395;43.488;1.472;2024-02-26T05:42:25;97835.94;;;9.60;78.14
81931;BME280;71395;43.488;1.472;2024-02-26T05:44:50;97843.66;;;9.62;78.94
81931;BME280;71395;43.488;1.472;2024-02-26T05:47:16;97853.56;;;9.61;77.60
81931;BME280;71395;43.488;1.472;2024-02-26T05:49:42;97845.66;;;9.56;78.24
81931;BME280;71395;43.488;1.472;2024-02-26T05:52:08;97848.94;;;9.53;77.53
81931;BME280;71395;43.488;1.472;2024-02-26T05:54:33;97845.78;;;9.51;77.99
81931;BME280;71395;43.488;1.472;2024-02-26T05:56:59;97859.63;;;9.53;78.87
81931;BME280;71395;43.488;1.472;2024-02-26T05:59:24;97870.84;;;9.55;77.54
81931;BME280;71395;43.488;1.472;2024-02-26T06:01:50;97869.53;;;9.52;78.25
81931;BME280;71395;43.488;1.472;2024-02-26T06:04:16;97845.09;;;9.45;78.05
81931;BME280;71395;43.488;1.472;2024-02-26T06:06:44;97864.50;;;9.51;77.90
81931;BME280;71395;43.488;1.472;2024-02-26T06:09:10;97851.84;;;9.43;78.25
81931;BME280;71395;43.488;1.472;2024-02-26T06:11:36;97825.13;;;9.29;78.23
81931;BME280;71395;43.488;1.472;2024-02-26T06:14:02;97858.75;;;9.44;78.17
81931;BME280;71395;43.488;1.472;2024-02-26T06:16:28;97862.72;;;9.46;77.65
81931;BME280;71395;43.488;1.472;2024-02-26T06:18:53;97867.88;;;9.43;78.25
81931;BME280;71395;43.488;1.472;2024-02-26T06:21:19;97848.13;;;9.30;77.73
81931;BME280;71395;43.488;1.472;2024-02-26T06:23:44;97871.66;;;9.42;77.93
81931;BME280;71395;43.488;1.472;2024-02-26T06:26:10;97841.28;;;9.24;78.00
81931;BME280;71395;43.488;1.472;2024-02-26T06:28:35;97861.06;;;9.37;78.14
81931;BME280;71395;43.488;1.472;2024-02-26T06:31:01;97875.22;;;9.37;77.45
81931;BME280;71395;43.488;1.472;2024-02-26T06:33:27;97882.78;;;9.35;77.88
81931;BME280;71395;43.488;1.472;2024-02-26T06:35:53;97894.63;;;9.43;78.19
81931;BME280;71395;43.488;1.472;2024-02-26T06:38:18;97892.06;;;9.38;76.67
81931;BME280;71395;43.488;1.472;2024-02-26T06:40:45;97903.75;;;9.42;77.27
81931;BME280;71395;43.488;1.472;2024-02-26T06:43:11;97894.84;;;9.32;76.56
81931;BME280;71395;43.488;1.472;2024-02-26T06:45:36;97920.38;;;9.39;77.17
81931;BME280;71395;43.488;1.472;2024-02-26T06:48:02;97916.13;;;9.38;76.66
81931;BME280;71395;43.488;1.472;2024-02-26T06:50:28;97916.72;;;9.35;77.04
81931;BME280;71395;43.488;1.472;2024-02-26T06:52:53;97908.44;;;9.22;77.84
81931;BME280;71395;43.488;1.472;2024-02-26T06:55:19;97916.66;;;9.26;77.39
81931;BME280;71395;43.488;1.472;2024-02-26T06:57:44;97931.50;;;9.32;76.32
81931;BME280;71395;43.488;1.472;2024-02-26T07:00:10;97918.75;;;9.15;77.56
81931;BME280;71395;43.488;1.472;2024-02-26T07:02:40;97933.28;;;9.23;77.52
81931;BME280;71395;43.488;1.472;2024-02-26T07:05:06;97939.84;;;9.30;77.57
81931;BME280;71395;43.488;1.472;2024-02-26T07:07:32;97935.56;;;9.29;76.45
81931;BME280;71395;43.488;1.472;2024-02-26T07:09:57;97942.19;;;9.32;76.00
81931;BME280;71395;43.488;1.472;2024-02-26T07:12:23;97935.56;;;9.29;76.48
81931;BME280;71395;43.488;1.472;2024-02-26T07:14:49;97945.34;;;9.34;76.63
81931;BME280;71395;43.488;1.472;2024-02-26T07:17:15;97932.41;;;9.27;76.47
81931;BME280;71395;43.488;1.472;2024-02-26T07:19:41;97942.41;;;9.36;76.45
81931;BME280;71395;43.488;1.472;2024-02-26T07:22:07;97949.81;;;9.39;76.10
81931;BME280;71395;43.488;1.472;2024-02-26T07:24:32;97932.88;;;9.29;76.87
81931;BME280;71395;43.488;1.472;2024-02-26T07:26:58;97918.66;;;9.20;75.48
81931;BME280;71395;43.488;1.472;2024-02-26T07:29:23;97942.19;;;9.32;75.50
81931;BME280;71395;43.488;1.472;2024-02-26T07:31:49;97948.22;;;9.38;76.90
81931;BME280;71395;43.488;1.472;2024-02-26T07:34:15;97962.28;;;9.43;76.45
81931;BME280;71395;43.488;1.472;2024-02-26T07:36:40;97953.56;;;9.38;76.84
81931;BME280;71395;43.488;1.472;2024-02-26T07:39:06;97968.13;;;9.45;75.91
81931;BME280;71395;43.488;1.472;2024-02-26T07:41:31;97966.72;;;9.48;75.28
81931;BME280;71395;43.488;1.472;2024-02-26T07:43:57;97954.94;;;9.49;75.50
81931;BME280;71395;43.488;1.472;2024-02-26T07:46:22;97953.88;;;9.50;75.87
81931;BME280;71395;43.488;1.472;2024-02-26T07:48:48;97962.75;;;9.59;75.52
81931;BME280;71395;43.488;1.472;2024-02-26T07:51:13;97945.72;;;9.55;75.14
81931;BME280;71395;43.488;1.472;2024-02-26T07:53:39;97946.53;;;9.55;76.28
81931;BME280;71395;43.488;1.472;2024-02-26T07:56:05;97954.22;;;9.57;76.02
81931;BME280;71395;43.488;1.472;2024-02-26T07:58:32;97958.09;;;9.65;75.02
81931;BME280;71395;43.488;1.472;2024-02-26T08:00:58;97979.56;;;9.73;75.92
81931;BME280;71395;43.488;1.472;2024-02-26T08:03:24;97968.84;;;9.73;75.18
81931;BME280;71395;43.488;1.472;2024-02-26T08:05:51;97979.44;;;9.78;73.98
81931;BME280;71395;43.488;1.472;2024-02-26T08:08:16;97962.13;;;9.76;74.41
81931;BME280;71395;43.488;1.472;2024-02-26T08:10:42;97947.44;;;9.73;74.62
81931;BME280;71395;43.488;1.472;2024-02-26T08:13:08;97966.94;;;9.88;75.57
81931;BME280;71395;43.488;1.472;2024-02-26T08:15:34;97940.88;;;9.79;73.51
81931;BME280;71395;43.488;1.472;2024-02-26T08:18:00;97941.56;;;9.85;74.68
81931;BME280;71395;43.488;1.472;2024-02-26T08:20:29;97950.16;;;9.96;74.87
81931;BME280;71395;43.488;1.472;2024-02-26T08:22:55;97948.06;;;9.93;73.38
81931;BME280;71395;43.488;1.472;2024-02-26T08:25:20;97948.94;;;10.02;73.40
81931;BME280;71395;43.488;1.472;2024-02-26T08:27:46;97936.38;;;9.89;73.89
81931;BME280;71395;43.488;1.472;2024-02-26T08:30:13;97920.03;;;9.90;74.09
81931;BME280;71395;43.488;1.472;2024-02-26T08:32:42;97953.06;;;10.08;74.41
81931;BME280;71395;43.488;1.472;2024-02-26T08:35:08;97942.34;;;10.08;73.77
81931;BME280;71395;43.488;1.472;2024-02-26T08:37:33;97958.47;;;10.17;73.55
81931;BME280;71395;43.488;1.472;2024-02-26T08:39:59;97946.00;;;10.12;73.84
81931;BME280;71395;43.488;1.472;2024-02-26T08:42:24;97916.63;;;9.98;74.23
81931;BME280;71395;43.488;1.472;2024-02-26T08:44:50;97967.72;;;10.24;73.88
81931;BME280;71395;43.488;1.472;2024-02-26T08:47:15;97973.06;;;10.24;72.96
81931;BME280;71395;43.488;1.472;2024-02-26T08:49:45;97976.75;;;10.37;73.46
81931;BME280;71395;43.488;1.472;2024-02-26T08:52:10;97968.41;;;10.39;72.76
81931;BME280;71395;43.488;1.472;2024-02-26T08:54:36;97963.06;;;10.39;73.25
81931;BME280;71395;43.488;1.472;2024-02-26T08:57:02;97940.50;;;10.31;72.48
81931;BME280;71395;43.488;1.472;2024-02-26T08:59:28;97961.22;;;10.48;71.91
81931;BME280;71395;43.488;1.472;2024-02-26T09:01:54;97970.09;;;10.57;71.61
81931;BME280;71395;43.488;1.472;2024-02-26T09:04:19;97956.53;;;10.53;71.50
81931;BME280;71395;43.488;1.472;2024-02-26T09:06:45;97983.38;;;10.62;71.21
81931;BME280;71395;43.488;1.472;2024-02-26T09:09:11;97963.03;;;10.61;70.62
81931;BME280;71395;43.488;1.472;2024-02-26T09:11:36;97976.91;;;10.63;70.67
81931;BME280;71395;43.488;1.472;2024-02-26T09:14:02;97957.31;;;10.54;70.33
81931;BME280;71395;43.488;1.472;2024-02-26T09:16:29;97985.34;;;10.79;70.50
81931;BME280;71395;43.488;1.472;2024-02-26T09:18:55;97997.16;;;10.78;70.87
81931;BME280;71395;43.488;1.472;2024-02-26T09:21:21;97994.53;;;10.86;70.92
81931;BME280;71395;43.488;1.472;2024-02-26T09:23:50;97985.38;;;10.87;70.70
81931;BME280;71395;43.488;1.472;2024-02-26T09:26:15;97987.13;;;10.92;70.57
81931;BME280;71395;43.488;1.472;2024-02-26T09:28:41;97976.59;;;10.96;69.55
81931;BME280;71395;43.488;1.472;2024-02-26T09:31:07;97977.25;;;11.01;69.82
81931;BME280;71395;43.488;1.472;2024-02-26T09:33:33;97971.56;;;11.03;69.29
81931;BME280;71395;43.488;1.472;2024-02-26T09:35:58;97991.78;;;11.09;69.32
81931;BME280;71395;43.488;1.472;2024-02-26T09:38:28;97980.09;;;11.05;69.33
81931;BME280;71395;43.488;1.472;2024-02-26T09:40:57;97997.66;;;11.20;68.93
81931;BME280;71395;43.488;1.472;2024-02-26T09:43:22;97983.31;;;11.24;68.73
81931;BME280;71395;43.488;1.472;2024-02-26T09:45:53;97990.72;;;11.27;69.19
81931;BME280;71395;43.488;1.472;2024-02-26T09:48:19;97987.63;;;11.34;69.11
81931;BME280;71395;43.488;1.472;2024-02-26T09:50:45;97968.03;;;11.25;67.66
81931;BME280;71395;43.488;1.472;2024-02-26T09:53:12;97974.84;;;11.39;68.56
81931;BME280;71395;43.488;1.472;2024-02-26T09:55:40;97977.53;;;11.48;68.15
81931;BME280;71395;43.488;1.472;2024-02-26T09:58:06;97973.44;;;11.51;67.40
81931;BME280;71395;43.488;1.472;2024-02-26T10:00:36;97979.91;;;11.58;67.68
81931;BME280;71395;43.488;1.472;2024-02-26T10:03:09;97960.97;;;11.55;67.64
81931;BME280;71395;43.488;1.472;2024-02-26T10:05:39;97954.53;;;11.64;67.55
81931;BME280;71395;43.488;1.472;2024-02-26T10:08:10;97958.28;;;11.63;67.22
81931;BME280;71395;43.488;1.472;2024-02-26T10:10:38;97960.34;;;11.67;67.12
81931;BME280;71395;43.488;1.472;2024-02-26T10:13:04;97942.03;;;11.60;67.18
81931;BME280;71395;43.488;1.472;2024-02-26T10:15:36;97964.16;;;11.83;66.50
81931;BME280;71395;43.488;1.472;2024-02-26T10:18:04;97950.91;;;11.86;66.70
81931;BME280;71395;43.488;1.472;2024-02-26T10:20:30;97956.44;;;11.90;65.97
81931;BME280;71395;43.488;1.472;2024-02-26T10:22:57;97941.75;;;11.87;65.81
81931;BME280;71395;43.488;1.472;2024-02-26T10:25:23;97963.41;;;12.00;65.87
81931;BME280;71395;43.488;1.472;2024-02-26T10:27:49;97960.06;;;12.03;65.26
81931;BME280;71395;43.488;1.472;2024-02-26T10:30:20;97964.81;;;12.06;64.89
81931;BME280;71395;43.488;1.472;2024-02-26T10:32:46;97951.84;;;12.08;65.49
81931;BME280;71395;43.488;1.472;2024-02-26T10:35:15;97945.22;;;11.97;65.30
81931;BME280;71395;43.488;1.472;2024-02-26T10:37:42;97972.09;;;12.14;64.46
81931;BME280;71395;43.488;1.472;2024-02-26T10:40:14;97947.41;;;12.12;64.21
81931;BME280;71395;43.488;1.472;2024-02-26T10:42:41;97954.69;;;12.20;64.73
81931;BME280;71395;43.488;1.472;2024-02-26T10:45:07;97956.59;;;12.28;64.14
81931;BME280;71395;43.488;1.472;2024-02-26T10:47:37;97959.88;;;12.34;64.11
81931;BME280;71395;43.488;1.472;2024-02-26T10:50:03;97943.59;;;12.30;63.59
81931;BME280;71395;43.488;1.472;2024-02-26T10:52:34;97957.03;;;12.39;63.98
81931;BME280;71395;43.488;1.472;2024-02-26T10:55:01;97943.78;;;12.34;64.23
81931;BME280;71395;43.488;1.472;2024-02-26T10:57:39;97956.06;;;12.44;63.72
81931;BME280;71395;43.488;1.472;2024-02-26T11:00:05;97945.50;;;12.38;63.38
81931;BME280;71395;43.488;1.472;2024-02-26T11:02:36;97944.66;;;12.47;63.49
81931;BME280;71395;43.488;1.472;2024-02-26T11:05:06;97949.88;;;12.52;63.18
81931;BME280;71395;43.488;1.472;2024-02-26T11:07:32;97961.84;;;12.63;62.94
81931;BME280;71395;43.488;1.472;2024-02-26T11:10:00;97965.97;;;12.69;62.99
81931;BME280;71395;43.488;1.472;2024-02-26T11:12:27;97950.63;;;12.70;62.99
81931;BME280;71395;43.488;1.472;2024-02-26T11:14:54;97960.50;;;12.86;62.81
81931;BME280;71395;43.488;1.472;2024-02-26T11:17:22;97964.28;;;12.94;62.54
81931;BME280;71395;43.488;1.472;2024-02-26T11:19:50;97952.84;;;13.06;62.26
81931;BME280;71395;43.488;1.472;2024-02-26T11:22:17;97958.97;;;13.15;61.49
81931;BME280;71395;43.488;1.472;2024-02-26T11:24:43;97951.19;;;13.22;61.38
81931;BME280;71395;43.488;1.472;2024-02-26T11:27:10;97955.31;;;13.28;61.68
81931;BME280;71395;43.488;1.472;2024-02-26T11:29:43;97940.59;;;13.26;61.66
81931;BME280;71395;43.488;1.472;2024-02-26T11:32:10;97948.63;;;13.34;61.15
81931;BME280;71395;43.488;1.472;2024-02-26T11:34:36;97950.44;;;13.42;60.79
81931;BME280;71395;43.488;1.472;2024-02-26T11:37:12;97944.16;;;13.38;61.06
81931;BME280;71395;43.488;1.472;2024-02-26T11:39:41;97943.59;;;13.24;60.34
81931;BME280;71395;43.488;1.472;2024-02-26T11:42:08;97933.97;;;13.23;60.39
81931;BME280;71395;43.488;1.472;2024-02-26T11:44:34;97938.38;;;13.19;60.73
81931;BME280;71395;43.488;1.472;2024-02-26T11:47:12;97922.91;;;13.07;59.59
81931;BME280;71395;43.488;1.472;2024-02-26T11:49:37;97926.88;;;13.10;60.16
81931;BME280;71395;43.488;1.472;2024-02-26T11:52:06;97929.22;;;13.11;59.73
81931;BME280;71395;43.488;1.472;2024-02-26T11:54:50;97886.41;;;12.98;59.26
81931;BME280;71395;43.488;1.472;2024-02-26T11:57:23;97913.22;;;13.24;59.86
81931;BME280;71395;43.488;1.472;2024-02-26T11:59:51;97905.44;;;13.22;60.34
81931;BME280;71395;43.488;1.472;2024-02-26T12:02:39;97915.00;;;13.40;58.92
81931;BME280;71395;43.488;1.472;2024-02-26T12:05:37;97893.47;;;13.40;58.79
81931;BME280;71395;43.488;1.472;2024-02-26T12:08:06;97897.09;;;13.44;60.22
81931;BME280;71395;43.488;1.472;2024-02-26T12:10:35;97882.06;;;13.43;59.78
81931;BME280;71395;43.488;1.472;2024-02-26T12:13:13;97888.63;;;13.55;59.32
81931;BME280;71395;43.488;1.472;2024-02-26T12:15:58;97867.09;;;13.55;58.28
81931;BME280;71395;43.488;1.472;2024-02-26T12:18:24;97870.56;;;13.55;59.66
81931;BME280;71395;43.488;1.472;2024-02-26T12:21:02;97866.53;;;13.61;58.74
81931;BME280;71395;43.488;1.472;2024-02-26T12:23:29;97867.47;;;13.65;58.79
81931;BME280;71395;43.488;1.472;2024-02-26T12:26:01;97852.63;;;13.59;58.60
81931;BME280;71395;43.488;1.472;2024-02-26T12:28:31;97825.97;;;13.45;58.55
81931;BME280;71395;43.488;1.472;2024-02-26T12:30:57;97829.16;;;13.48;58.89
81931;BME280;71395;43.488;1.472;2024-02-26T12:33:25;97837.25;;;13.60;58.88
81931;BME280;71395;43.488;1.472;2024-02-26T12:35:53;97806.22;;;13.41;58.66
81931;BME280;71395;43.488;1.472;2024-02-26T12:38:18;97835.69;;;13.59;58.17
81931;BME280;71395;43.488;1.472;2024-02-26T12:40:45;97831.88;;;13.60;58.22
81931;BME280;71395;43.488;1.472;2024-02-26T12:43:10;97828.97;;;13.65;57.89
81931;BME280;71395;43.488;1.472;2024-02-26T12:45:43;97824.38;;;13.65;57.84
81931;BME280;71395;43.488;1.472;2024-02-26T12:48:12;97832.81;;;13.64;57.71
81931;BME280;71395;43.488;1.472;2024-02-26T12:50:38;97825.31;;;13.69;57.54
81931;BME280;71395;43.488;1.472;2024-02-26T12:53:05;97833.03;;;13.71;58.15
81931;BME280;71395;43.488;1.472;2024-02-26T12:55:41;97815.97;;;13.67;55.99
81931;BME280;71395;43.488;1.472;2024-02-26T12:58:08;97812.19;;;13.68;57.18
81931;BME280;71395;43.488;1.472;2024-02-26T13:00:34;97822.75;;;13.73;57.52
81931;BME280;71395;43.488;1.472;2024-02-26T13:03:00;97794.53;;;13.58;57.21
81931;BME280;71395;43.488;1.472;2024-02-26T13:05:26;97809.78;;;13.66;57.45
81931;BME280;71395;43.488;1.472;2024-02-26T13:07:52;97818.91;;;13.74;57.29